sensor_id;sensor_type;location;lat;lon;timestamp;pressure;altitude;pressure_sealevel;temperature;humidity
30875;BME280;17581;43.222;27.924;2023-08-17T00:00:01;100569.28;;;25.24;67.92
30875;BME280;17581;43.222;27.924;2023-08-17T00:02:28;100567.19;;;25.19;68.01
30875;BME280;17581;43.222;27.924;2023-08-17T00:04:54;100578.66;;;25.16;68.68
30875;BME280;17581;43.222;27.924;2023-08-17T00:07:19;100573.19;;;25.10;68.93
30875;BME280;17581;43.222;27.924;2023-08-17T00:09:45;100571.66;;;25.14;68.38
30875;BME280;17581;43.222;27.924;2023-08-17T00:12:10;100562.63;;;25.07;69.04
30875;BME280;17581;43.222;27.924;2023-08-17T00:14:35;100578.28;;;25.06;69.06
30875;BME280;17581;43.222;27.924;2023-08-17T00:17:01;100581.25;;;25.05;69.04
30875;BME280;17581;43.222;27.924;2023-08-17T00:19:28;100571.75;;;25.01;68.79
30875;BME280;17581;43.222;27.924;2023-08-17T00:21:53;100572.53;;;25.08;68.09
30875;BME280;17581;43.222;27.924;2023-08-17T00:24:20;100570.28;;;24.98;68.45
30875;BME280;17581;43.222;27.924;2023-08-17T00:26:45;100572.53;;;25.08;68.30
30875;BME280;17581;43.222;27.924;2023-08-17T00:29:11;100582.66;;;25.14;67.65
30875;BME280;17581;43.222;27.924;2023-08-17T00:31:36;100568.16;;;25.00;68.01
30875;BME280;17581;43.222;27.924;2023-08-17T00:34:02;100576.41;;;25.00;68.40
30875;BME280;17581;43.222;27.924;2023-08-17T00:36:27;100575.78;;;24.98;68.24
30875;BME280;17581;43.222;27.924;2023-08-17T00:38:53;100568.84;;;24.89;68.53
30875;BME280;17581;43.222;27.924;2023-08-17T00:41:18;100568.00;;;24.88;68.18
30875;BME280;17581;43.222;27.924;2023-08-17T00:43:44;100570.97;;;24.87;68.43
30875;BME280;17581;43.222;27.924;2023-08-17T00:46:10;100588.50;;;24.92;68.38
30875;BME280;17581;43.222;27.924;2023-08-17T00:48:36;100581.31;;;24.92;68.44
30875;BME280;17581;43.222;27.924;2023-08-17T00:51:03;100577.88;;;25.03;67.94
30875;BME280;17581;43.222;27.924;2023-08-17T00:53:30;100574.31;;;24.96;68.46
30875;BME280;17581;43.222;27.924;2023-08-17T00:55:57;100570.91;;;25.00;68.44
30875;BME280;17581;43.222;27.924;2023-08-17T00:58:23;100585.13;;;24.90;68.30
30875;BME280;17581;43.222;27.924;2023-08-17T01:00:48;100580.00;;;25.01;67.44
30875;BME280;17581;43.222;27.924;2023-08-17T01:03:15;100583.81;;;25.00;68.28
30875;BME280;17581;43.222;27.924;2023-08-17T01:05:40;100573.41;;;25.02;67.84
30875;BME280;17581;43.222;27.924;2023-08-17T01:08:06;100558.28;;;24.86;67.67
30875;BME280;17581;43.222;27.924;2023-08-17T01:10:40;100573.25;;;24.97;67.66
30875;BME280;17581;43.222;27.924;2023-08-17T01:13:13;100567.16;;;24.88;67.75
30875;BME280;17581;43.222;27.924;2023-08-17T01:15:50;100571.31;;;25.04;67.35
30875;BME280;17581;43.222;27.924;2023-08-17T01:18:23;100545.78;;;24.83;68.10
30875;BME280;17581;43.222;27.924;2023-08-17T01:20:53;100543.28;;;24.75;68.02
30875;BME280;17581;43.222;27.924;2023-08-17T01:23:19;100529.34;;;24.70;68.20
30875;BME280;17581;43.222;27.924;2023-08-17T01:25:45;100566.47;;;24.92;69.03
30875;BME280;17581;43.222;27.924;2023-08-17T01:28:11;100520.00;;;24.71;69.08
30875;BME280;17581;43.222;27.924;2023-08-17T01:31:05;100531.81;;;24.85;68.69
30875;BME280;17581;43.222;27.924;2023-08-17T01:33:43;100561.81;;;25.00;68.90
30875;BME280;17581;43.222;27.924;2023-08-17T01:38:38;100521.25;;;24.75;68.93
30875;BME280;17581;43.222;27.924;2023-08-17T01:41:06;100528.47;;;24.83;69.24
30875;BME280;17581;43.222;27.924;2023-08-17T01:43:32;100527.81;;;24.81;69.22
30875;BME280;17581;43.222;27.924;2023-08-17T01:45:59;100546.56;;;24.97;69.57
30875;BME280;17581;43.222;27.924;2023-08-17T01:48:25;100541.06;;;24.97;69.42
30875;BME280;17581;43.222;27.924;2023-08-17T01:50:50;100528.34;;;25.03;68.61
30875;BME280;17581;43.222;27.924;2023-08-17T01:53:16;100553.69;;;25.11;68.52
30875;BME280;17581;43.222;27.924;2023-08-17T01:55:42;100544.81;;;25.09;68.52
30875;BME280;17581;43.222;27.924;2023-08-17T01:58:07;100544.56;;;25.11;67.95
30875;BME280;17581;43.222;27.924;2023-08-17T02:00:32;100541.44;;;25.07;67.56
30875;BME280;17581;43.222;27.924;2023-08-17T02:02:58;100528.75;;;25.06;67.60
30875;BME280;17581;43.222;27.924;2023-08-17T02:05:23;100514.75;;;25.08;67.36
30875;BME280;17581;43.222;27.924;2023-08-17T02:07:49;100529.91;;;25.17;66.84
30875;BME280;17581;43.222;27.924;2023-08-17T02:10:14;100538.63;;;25.14;67.05
30875;BME280;17581;43.222;27.924;2023-08-17T02:12:40;100537.59;;;25.08;67.63
30875;BME280;17581;43.222;27.924;2023-08-17T02:15:06;100549.47;;;25.09;67.31
30875;BME280;17581;43.222;27.924;2023-08-17T02:17:31;100541.22;;;25.09;66.96
30875;BME280;17581;43.222;27.924;2023-08-17T02:19:57;100547.97;;;25.13;67.01
30875;BME280;17581;43.222;27.924;2023-08-17T02:22:22;100538.25;;;25.10;67.50
30875;BME280;17581;43.222;27.924;2023-08-17T02:24:48;100539.88;;;25.18;67.70
30875;BME280;17581;43.222;27.924;2023-08-17T02:27:13;100511.94;;;25.14;67.80
30875;BME280;17581;43.222;27.924;2023-08-17T02:29:39;100538.13;;;25.23;68.46
30875;BME280;17581;43.222;27.924;2023-08-17T02:32:04;100520.25;;;25.08;68.70
30875;BME280;17581;43.222;27.924;2023-08-17T02:34:30;100522.19;;;25.07;69.10
30875;BME280;17581;43.222;27.924;2023-08-17T02:36:56;100520.47;;;25.06;69.21
30875;BME280;17581;43.222;27.924;2023-08-17T02:39:21;100535.69;;;25.09;69.36
30875;BME280;17581;43.222;27.924;2023-08-17T02:41:47;100530.03;;;25.04;69.67
30875;BME280;17581;43.222;27.924;2023-08-17T02:44:14;100533.19;;;25.07;69.46
30875;BME280;17581;43.222;27.924;2023-08-17T02:46:40;100527.00;;;25.12;69.92
30875;BME280;17581;43.222;27.924;2023-08-17T02:49:05;100526.38;;;25.10;70.19
30875;BME280;17581;43.222;27.924;2023-08-17T02:51:31;100537.81;;;25.13;70.61
30875;BME280;17581;43.222;27.924;2023-08-17T02:53:56;100548.13;;;25.18;71.01
30875;BME280;17581;43.222;27.924;2023-08-17T02:56:22;100538.00;;;25.12;70.88
30875;BME280;17581;43.222;27.924;2023-08-17T02:58:47;100544.56;;;25.11;71.76
30875;BME280;17581;43.222;27.924;2023-08-17T03:01:13;100519.03;;;25.04;71.50
30875;BME280;17581;43.222;27.924;2023-08-17T03:03:38;100546.44;;;25.17;71.45
30875;BME280;17581;43.222;27.924;2023-08-17T03:06:04;100527.84;;;25.12;71.63
30875;BME280;17581;43.222;27.924;2023-08-17T03:08:30;100523.38;;;25.18;70.98
30875;BME280;17581;43.222;27.924;2023-08-17T03:10:55;100519.09;;;25.22;71.01
30875;BME280;17581;43.222;27.924;2023-08-17T03:13:21;100534.09;;;25.26;70.80
30875;BME280;17581;43.222;27.924;2023-08-17T03:15:46;100537.09;;;25.24;71.69
30875;BME280;17581;43.222;27.924;2023-08-17T03:18:12;100543.44;;;25.25;71.80
30875;BME280;17581;43.222;27.924;2023-08-17T03:20:37;100538.38;;;25.22;72.00
30875;BME280;17581;43.222;27.924;2023-08-17T03:23:03;100525.66;;;25.21;72.22
30875;BME280;17581;43.222;27.924;2023-08-17T03:25:32;100521.06;;;25.15;72.37
30875;BME280;17581;43.222;27.924;2023-08-17T03:27:57;100519.81;;;25.11;73.00
30875;BME280;17581;43.222;27.924;2023-08-17T03:30:23;100522.97;;;25.14;72.85
30875;BME280;17581;43.222;27.924;2023-08-17T03:32:48;100523.19;;;25.13;72.56
30875;BME280;17581;43.222;27.924;2023-08-17T03:35:14;100541.97;;;25.22;72.84
30875;BME280;17581;43.222;27.924;2023-08-17T03:37:39;100542.63;;;25.18;73.18
30875;BME280;17581;43.222;27.924;2023-08-17T03:40:05;100547.41;;;25.29;72.21
30875;BME280;17581;43.222;27.924;2023-08-17T03:42:31;100552.56;;;25.25;72.84
30875;BME280;17581;43.222;27.924;2023-08-17T03:44:56;100546.00;;;25.20;73.30
30875;BME280;17581;43.222;27.924;2023-08-17T03:47:22;100547.69;;;25.21;73.87
30875;BME280;17581;43.222;27.924;2023-08-17T03:49:47;100539.44;;;25.21;73.95
30875;BME280;17581;43.222;27.924;2023-08-17T03:52:13;100537.13;;;25.18;74.11
30875;BME280;17581;43.222;27.924;2023-08-17T03:54:38;100558.06;;;25.25;73.56
30875;BME280;17581;43.222;27.924;2023-08-17T03:57:04;100562.72;;;25.25;73.69
30875;BME280;17581;43.222;27.924;2023-08-17T03:59:29;100562.72;;;25.25;73.17
30875;BME280;17581;43.222;27.924;2023-08-17T04:01:55;100549.38;;;25.22;72.88
30875;BME280;17581;43.222;27.924;2023-08-17T04:04:20;100544.94;;;25.21;73.09
30875;BME280;17581;43.222;27.924;2023-08-17T04:06:46;100558.25;;;25.24;72.54
30875;BME280;17581;43.222;27.924;2023-08-17T04:09:11;100579.31;;;25.43;71.72
30875;BME280;17581;43.222;27.924;2023-08-17T04:11:37;100563.69;;;25.37;71.71
30875;BME280;17581;43.222;27.924;2023-08-17T04:14:03;100574.13;;;25.60;71.07
30875;BME280;17581;43.222;27.924;2023-08-17T04:16:29;100568.69;;;25.53;70.91
30875;BME280;17581;43.222;27.924;2023-08-17T04:18:55;100578.72;;;25.66;70.42
30875;BME280;17581;43.222;27.924;2023-08-17T04:21:20;100567.97;;;25.64;70.42
30875;BME280;17581;43.222;27.924;2023-08-17T04:23:46;100552.50;;;25.63;70.43
30875;BME280;17581;43.222;27.924;2023-08-17T04:26:12;100567.41;;;25.80;69.60
30875;BME280;17581;43.222;27.924;2023-08-17T04:28:37;100564.34;;;25.88;69.48
30875;BME280;17581;43.222;27.924;2023-08-17T04:31:03;100575.97;;;25.90;69.69
30875;BME280;17581;43.222;27.924;2023-08-17T04:33:29;100564.59;;;25.87;69.64
30875;BME280;17581;43.222;27.924;2023-08-17T04:35:54;100569.41;;;25.91;69.42
30875;BME280;17581;43.222;27.924;2023-08-17T04:38:20;100583.69;;;26.07;68.90
30875;BME280;17581;43.222;27.924;2023-08-17T04:40:46;100579.38;;;26.17;69.05
30875;BME280;17581;43.222;27.924;2023-08-17T04:43:11;100582.69;;;26.26;68.67
30875;BME280;17581;43.222;27.924;2023-08-17T04:45:37;100576.06;;;26.27;67.61
30875;BME280;17581;43.222;27.924;2023-08-17T04:48:02;100576.84;;;26.34;65.98
30875;BME280;17581;43.222;27.924;2023-08-17T04:50:28;100588.66;;;26.41;65.94
30875;BME280;17581;43.222;27.924;2023-08-17T04:52:53;100578.88;;;26.45;66.40
30875;BME280;17581;43.222;27.924;2023-08-17T04:55:19;100571.97;;;26.54;65.17
30875;BME280;17581;43.222;27.924;2023-08-17T04:57:44;100583.00;;;26.72;64.76
30875;BME280;17581;43.222;27.924;2023-08-17T05:00:10;100581.06;;;26.73;64.93
30875;BME280;17581;43.222;27.924;2023-08-17T05:02:36;100564.41;;;26.79;64.10
30875;BME280;17581;43.222;27.924;2023-08-17T05:05:04;100577.88;;;26.94;64.15
30875;BME280;17581;43.222;27.924;2023-08-17T05:07:29;100582.81;;;27.03;63.40
30875;BME280;17581;43.222;27.924;2023-08-17T05:09:55;100573.59;;;27.10;63.64
30875;BME280;17581;43.222;27.924;2023-08-17T05:12:20;100570.16;;;27.14;64.45
30875;BME280;17581;43.222;27.924;2023-08-17T05:14:46;100567.41;;;27.26;63.36
30875;BME280;17581;43.222;27.924;2023-08-17T05:17:11;100565.41;;;27.33;63.68
30875;BME280;17581;43.222;27.924;2023-08-17T05:19:37;100572.44;;;27.47;62.77
30875;BME280;17581;43.222;27.924;2023-08-17T05:22:04;100569.44;;;27.48;62.78
30875;BME280;17581;43.222;27.924;2023-08-17T05:24:29;100558.31;;;27.55;62.61
30875;BME280;17581;43.222;27.924;2023-08-17T05:26:55;100553.84;;;27.54;62.46
30875;BME280;17581;43.222;27.924;2023-08-17T05:29:20;100563.13;;;27.71;62.23
30875;BME280;17581;43.222;27.924;2023-08-17T05:31:45;100564.81;;;27.72;61.44
30875;BME280;17581;43.222;27.924;2023-08-17T05:34:11;100560.72;;;27.86;61.44
30875;BME280;17581;43.222;27.924;2023-08-17T05:36:37;100558.69;;;27.93;60.90
30875;BME280;17581;43.222;27.924;2023-08-17T05:39:02;100562.09;;;28.07;60.10
30875;BME280;17581;43.222;27.924;2023-08-17T05:41:28;100558.47;;;28.18;59.94
30875;BME280;17581;43.222;27.924;2023-08-17T05:43:54;100556.66;;;28.35;58.82
30875;BME280;17581;43.222;27.924;2023-08-17T05:46:19;100555.31;;;28.38;57.81
30875;BME280;17581;43.222;27.924;2023-08-17T05:48:45;100556.53;;;28.42;58.33
30875;BME280;17581;43.222;27.924;2023-08-17T05:51:10;100561.81;;;28.55;57.49
30875;BME280;17581;43.222;27.924;2023-08-17T05:53:36;100559.88;;;28.67;57.37
30875;BME280;17581;43.222;27.924;2023-08-17T05:56:01;100559.84;;;28.79;56.39
30875;BME280;17581;43.222;27.924;2023-08-17T05:58:29;100562.22;;;28.87;56.62
30875;BME280;17581;43.222;27.924;2023-08-17T06:01:07;100546.94;;;28.84;56.31
30875;BME280;17581;43.222;27.924;2023-08-17T06:03:35;100569.00;;;29.07;56.48
30875;BME280;17581;43.222;27.924;2023-08-17T06:06:01;100564.16;;;29.14;56.14
30875;BME280;17581;43.222;27.924;2023-08-17T06:08:27;100573.28;;;29.27;56.42
30875;BME280;17581;43.222;27.924;2023-08-17T06:10:57;100533.78;;;29.20;55.35
30875;BME280;17581;43.222;27.924;2023-08-17T06:13:22;100559.53;;;29.32;55.57
30875;BME280;17581;43.222;27.924;2023-08-17T06:15:48;100537.41;;;29.20;54.99
30875;BME280;17581;43.222;27.924;2023-08-17T06:18:14;100529.75;;;29.10;55.18
30875;BME280;17581;43.222;27.924;2023-08-17T06:20:42;100538.44;;;29.02;55.72
30875;BME280;17581;43.222;27.924;2023-08-17T06:23:08;100534.88;;;28.90;55.65
30875;BME280;17581;43.222;27.924;2023-08-17T06:25:34;100526.63;;;28.79;56.12
30875;BME280;17581;43.222;27.924;2023-08-17T06:28:00;100542.44;;;28.95;56.49
30875;BME280;17581;43.222;27.924;2023-08-17T06:30:26;100544.81;;;29.03;56.28
30875;BME280;17581;43.222;27.924;2023-08-17T06:32:51;100551.78;;;29.05;56.20
30875;BME280;17581;43.222;27.924;2023-08-17T06:35:17;100542.81;;;28.98;56.65
30875;BME280;17581;43.222;27.924;2023-08-17T06:37:42;100564.25;;;29.20;56.70
30875;BME280;17581;43.222;27.924;2023-08-17T06:40:08;100571.22;;;29.22;56.71
30875;BME280;17581;43.222;27.924;2023-08-17T06:42:36;100550.53;;;29.25;56.57
30875;BME280;17581;43.222;27.924;2023-08-17T06:45:03;100560.47;;;29.37;54.74
30875;BME280;17581;43.222;27.924;2023-08-17T06:47:28;100558.53;;;29.38;55.04
30875;BME280;17581;43.222;27.924;2023-08-17T06:49:54;100566.34;;;29.57;55.02
30875;BME280;17581;43.222;27.924;2023-08-17T06:52:20;100549.50;;;29.59;54.56
30875;BME280;17581;43.222;27.924;2023-08-17T06:54:46;100561.06;;;29.73;54.47
30875;BME280;17581;43.222;27.924;2023-08-17T06:57:11;100560.44;;;29.82;53.25
30875;BME280;17581;43.222;27.924;2023-08-17T06:59:36;100564.47;;;29.91;53.09
30875;BME280;17581;43.222;27.924;2023-08-17T07:02:02;100561.28;;;29.99;52.79
30875;BME280;17581;43.222;27.924;2023-08-17T07:04:27;100563.69;;;30.12;52.42
30875;BME280;17581;43.222;27.924;2023-08-17T07:06:53;100547.38;;;30.16;52.44
30875;BME280;17581;43.222;27.924;2023-08-17T07:09:18;100555.06;;;30.31;52.04
30875;BME280;17581;43.222;27.924;2023-08-17T07:11:45;100578.03;;;30.43;52.78
30875;BME280;17581;43.222;27.924;2023-08-17T07:14:11;100574.22;;;30.49;52.46
30875;BME280;17581;43.222;27.924;2023-08-17T07:16:37;100577.47;;;30.62;52.10
30875;BME280;17581;43.222;27.924;2023-08-17T07:19:03;100563.88;;;30.61;52.24
30875;BME280;17581;43.222;27.924;2023-08-17T07:21:29;100592.41;;;30.78;52.18
30875;BME280;17581;43.222;27.924;2023-08-17T07:23:54;100574.00;;;30.72;51.94
30875;BME280;17581;43.222;27.924;2023-08-17T07:26:20;100576.41;;;30.85;51.77
30875;BME280;17581;43.222;27.924;2023-08-17T07:28:47;100581.44;;;30.88;51.20
30875;BME280;17581;43.222;27.924;2023-08-17T07:31:13;100576.50;;;30.73;50.89
30875;BME280;17581;43.222;27.924;2023-08-17T07:33:38;100593.78;;;30.97;51.37
30875;BME280;17581;43.222;27.924;2023-08-17T07:36:04;100603.59;;;31.05;50.51
30875;BME280;17581;43.222;27.924;2023-08-17T07:38:30;100586.72;;;31.11;50.71
30875;BME280;17581;43.222;27.924;2023-08-17T07:40:55;100600.47;;;31.23;50.26
30875;BME280;17581;43.222;27.924;2023-08-17T07:43:21;100606.34;;;31.26;50.70
30875;BME280;17581;43.222;27.924;2023-08-17T07:46:01;100603.72;;;31.42;50.78
30875;BME280;17581;43.222;27.924;2023-08-17T07:48:27;100599.91;;;31.48;50.06
30875;BME280;17581;43.222;27.924;2023-08-17T07:50:53;100590.81;;;31.52;49.69
30875;BME280;17581;43.222;27.924;2023-08-17T07:53:19;100595.03;;;31.60;49.43
30875;BME280;17581;43.222;27.924;2023-08-17T07:55:45;100583.56;;;31.51;49.15
30875;BME280;17581;43.222;27.924;2023-08-17T07:58:11;100603.13;;;31.61;49.27
30875;BME280;17581;43.222;27.924;2023-08-17T08:00:36;100605.44;;;31.69;49.05
30875;BME280;17581;43.222;27.924;2023-08-17T08:03:02;100597.53;;;31.88;48.61
30875;BME280;17581;43.222;27.924;2023-08-17T08:05:27;100579.69;;;31.84;48.05
30875;BME280;17581;43.222;27.924;2023-08-17T08:07:53;100589.00;;;32.00;48.56
30875;BME280;17581;43.222;27.924;2023-08-17T08:10:19;100582.59;;;31.99;46.91
30875;BME280;17581;43.222;27.924;2023-08-17T08:12:44;100601.03;;;32.05;46.31
30875;BME280;17581;43.222;27.924;2023-08-17T08:15:10;100591.44;;;31.91;47.37
30875;BME280;17581;43.222;27.924;2023-08-17T08:17:35;100595.06;;;31.92;46.89
30875;BME280;17581;43.222;27.924;2023-08-17T08:20:01;100605.44;;;32.01;45.15
30875;BME280;17581;43.222;27.924;2023-08-17T08:22:27;100599.28;;;31.99;45.86
30875;BME280;17581;43.222;27.924;2023-08-17T08:24:52;100596.59;;;32.04;45.78
30875;BME280;17581;43.222;27.924;2023-08-17T08:27:18;100590.69;;;32.01;46.36
30875;BME280;17581;43.222;27.924;2023-08-17T08:29:43;100591.13;;;31.88;45.11
30875;BME280;17581;43.222;27.924;2023-08-17T08:32:08;100583.81;;;31.76;45.82
30875;BME280;17581;43.222;27.924;2023-08-17T08:34:34;100577.50;;;31.86;46.13
30875;BME280;17581;43.222;27.924;2023-08-17T08:36:59;100591.28;;;32.03;46.45
30875;BME280;17581;43.222;27.924;2023-08-17T08:39:25;100603.34;;;32.18;45.67
30875;BME280;17581;43.222;27.924;2023-08-17T08:41:51;100591.16;;;32.24;45.54
30875;BME280;17581;43.222;27.924;2023-08-17T08:44:16;100602.81;;;32.21;45.33
30875;BME280;17581;43.222;27.924;2023-08-17T08:46:44;100590.00;;;32.20;45.75
30875;BME280;17581;43.222;27.924;2023-08-17T08:49:10;100595.28;;;32.17;44.90
30875;BME280;17581;43.222;27.924;2023-08-17T08:51:42;100590.63;;;32.27;44.91
30875;BME280;17581;43.222;27.924;2023-08-17T08:54:12;100590.59;;;32.22;44.46
30875;BME280;17581;43.222;27.924;2023-08-17T08:56:38;100575.06;;;31.95;44.73
30875;BME280;17581;43.222;27.924;2023-08-17T08:59:07;100593.91;;;32.19;44.50
30875;BME280;17581;43.222;27.924;2023-08-17T09:01:33;100593.19;;;32.02;44.41
30875;BME280;17581;43.222;27.924;2023-08-17T09:04:02;100581.50;;;32.00;43.78
30875;BME280;17581;43.222;27.924;2023-08-17T09:06:29;100584.28;;;32.00;43.01
30875;BME280;17581;43.222;27.924;2023-08-17T09:08:55;100573.69;;;32.02;43.68
30875;BME280;17581;43.222;27.924;2023-08-17T09:11:21;100604.19;;;32.14;42.74
30875;BME280;17581;43.222;27.924;2023-08-17T09:13:47;100590.78;;;32.11;43.29
30875;BME280;17581;43.222;27.924;2023-08-17T09:16:12;100587.28;;;32.25;42.68
30875;BME280;17581;43.222;27.924;2023-08-17T09:18:38;100598.44;;;32.30;42.87
30875;BME280;17581;43.222;27.924;2023-08-17T09:21:03;100585.91;;;32.28;42.89
30875;BME280;17581;43.222;27.924;2023-08-17T09:23:29;100577.56;;;32.33;42.72
30875;BME280;17581;43.222;27.924;2023-08-17T09:25:54;100594.09;;;32.50;43.17
30875;BME280;17581;43.222;27.924;2023-08-17T09:28:23;100580.28;;;32.65;43.43
30875;BME280;17581;43.222;27.924;2023-08-17T09:30:58;100600.94;;;32.74;43.09
30875;BME280;17581;43.222;27.924;2023-08-17T09:33:28;100595.63;;;32.67;43.03
30875;BME280;17581;43.222;27.924;2023-08-17T09:35:57;100567.22;;;32.75;42.73
30875;BME280;17581;43.222;27.924;2023-08-17T09:38:23;100587.38;;;32.93;41.69
30875;BME280;17581;43.222;27.924;2023-08-17T09:40:49;100591.56;;;33.00;42.16
30875;BME280;17581;43.222;27.924;2023-08-17T09:43:16;100587.66;;;32.96;41.04
30875;BME280;17581;43.222;27.924;2023-08-17T09:45:45;100577.03;;;32.88;40.58
30875;BME280;17581;43.222;27.924;2023-08-17T09:48:19;100592.69;;;32.99;41.64
30875;BME280;17581;43.222;27.924;2023-08-17T09:50:46;100568.72;;;33.03;41.17
30875;BME280;17581;43.222;27.924;2023-08-17T09:53:16;100591.38;;;33.12;41.27
30875;BME280;17581;43.222;27.924;2023-08-17T09:55:42;100584.97;;;33.11;40.89
30875;BME280;17581;43.222;27.924;2023-08-17T09:58:08;100573.81;;;33.11;40.54
30875;BME280;17581;43.222;27.924;2023-08-17T10:00:34;100570.44;;;33.09;40.40
30875;BME280;17581;43.222;27.924;2023-08-17T10:03:04;100584.41;;;33.19;40.08
30875;BME280;17581;43.222;27.924;2023-08-17T10:05:32;100593.38;;;33.36;39.88
30875;BME280;17581;43.222;27.924;2023-08-17T10:08:00;100587.25;;;33.39;39.39
30875;BME280;17581;43.222;27.924;2023-08-17T10:10:29;100576.94;;;33.40;40.02
30875;BME280;17581;43.222;27.924;2023-08-17T10:13:09;100573.31;;;33.34;39.12
30875;BME280;17581;43.222;27.924;2023-08-17T10:15:47;100564.94;;;33.29;38.82
30875;BME280;17581;43.222;27.924;2023-08-17T10:18:35;100580.56;;;33.35;39.25
30875;BME280;17581;43.222;27.924;2023-08-17T10:21:06;100582.22;;;33.26;39.19
30875;BME280;17581;43.222;27.924;2023-08-17T10:23:33;100574.97;;;33.35;40.03
30875;BME280;17581;43.222;27.924;2023-08-17T10:26:01;100582.50;;;33.30;40.99
30875;BME280;17581;43.222;27.924;2023-08-17T10:28:30;100582.81;;;33.44;39.88
30875;BME280;17581;43.222;27.924;2023-08-17T10:30:56;100567.72;;;33.29;40.78
30875;BME280;17581;43.222;27.924;2023-08-17T10:33:23;100576.09;;;33.34;40.96
30875;BME280;17581;43.222;27.924;2023-08-17T10:35:50;100573.84;;;33.31;41.40
30875;BME280;17581;43.222;27.924;2023-08-17T10:38:16;100584.16;;;33.26;41.50
30875;BME280;17581;43.222;27.924;2023-08-17T10:40:43;100571.63;;;33.23;42.07
30875;BME280;17581;43.222;27.924;2023-08-17T10:43:08;100571.03;;;33.21;41.82
30875;BME280;17581;43.222;27.924;2023-08-17T10:45:35;100581.66;;;33.39;40.99
30875;BME280;17581;43.222;27.924;2023-08-17T10:50:32;100570.47;;;33.19;41.60
30875;BME280;17581;43.222;27.924;2023-08-17T10:53:08;100577.78;;;33.40;41.29
30875;BME280;17581;43.222;27.924;2023-08-17T10:55:38;100585.03;;;33.42;41.40
30875;BME280;17581;43.222;27.924;2023-08-17T10:58:07;100574.66;;;33.12;41.98
30875;BME280;17581;43.222;27.924;2023-08-17T11:00:40;100567.13;;;33.17;42.24
30875;BME280;17581;43.222;27.924;2023-08-17T11:03:18;100573.88;;;33.42;42.27
30875;BME280;17581;43.222;27.924;2023-08-17T11:05:45;100565.47;;;33.36;42.32
30875;BME280;17581;43.222;27.924;2023-08-17T11:11:04;100573.31;;;33.34;42.63
30875;BME280;17581;43.222;27.924;2023-08-17T11:13:31;100571.34;;;33.30;42.82
30875;BME280;17581;43.222;27.924;2023-08-17T11:15:58;100564.38;;;33.32;42.81
30875;BME280;17581;43.222;27.924;2023-08-17T11:18:24;100547.94;;;33.36;42.41
30875;BME280;17581;43.222;27.924;2023-08-17T11:20:49;100564.13;;;33.49;42.56
30875;BME280;17581;43.222;27.924;2023-08-17T11:23:15;100577.28;;;33.69;42.54
30875;BME280;17581;43.222;27.924;2023-08-17T11:25:42;100559.97;;;33.72;41.95
30875;BME280;17581;43.222;27.924;2023-08-17T11:28:08;100552.16;;;33.74;42.11
30875;BME280;17581;43.222;27.924;2023-08-17T11:30:34;100569.19;;;33.87;42.27
30875;BME280;17581;43.222;27.924;2023-08-17T11:33:01;100558.88;;;33.73;42.71
30875;BME280;17581;43.222;27.924;2023-08-17T11:35:26;100566.38;;;33.57;42.79
30875;BME280;17581;43.222;27.924;2023-08-17T11:37:52;100565.53;;;33.57;42.84
30875;BME280;17581;43.222;27.924;2023-08-17T11:40:17;100580.03;;;33.59;43.11
30875;BME280;17581;43.222;27.924;2023-08-17T11:42:44;100561.66;;;33.68;43.02
30875;BME280;17581;43.222;27.924;2023-08-17T11:45:09;100582.31;;;33.97;43.08
30875;BME280;17581;43.222;27.924;2023-08-17T11:47:37;100564.16;;;34.00;42.58
30875;BME280;17581;43.222;27.924;2023-08-17T11:50:03;100572.53;;;34.10;42.47
30875;BME280;17581;43.222;27.924;2023-08-17T11:52:30;100548.78;;;34.07;42.45
30875;BME280;17581;43.222;27.924;2023-08-17T11:54:58;100560.50;;;34.04;42.17
30875;BME280;17581;43.222;27.924;2023-08-17T11:57:24;100556.31;;;34.07;42.30
30875;BME280;17581;43.222;27.924;2023-08-17T11:59:54;100534.28;;;33.95;42.43
30875;BME280;17581;43.222;27.924;2023-08-17T12:02:24;100554.94;;;34.04;42.09
30875;BME280;17581;43.222;27.924;2023-08-17T12:04:50;100564.72;;;34.17;42.50
30875;BME280;17581;43.222;27.924;2023-08-17T12:07:17;100543.47;;;34.01;42.20
30875;BME280;17581;43.222;27.924;2023-08-17T12:09:46;100568.59;;;34.26;42.13
30875;BME280;17581;43.222;27.924;2023-08-17T12:12:12;100549.03;;;34.36;42.11
30875;BME280;17581;43.222;27.924;2023-08-17T12:14:41;100559.88;;;34.47;41.90
30875;BME280;17581;43.222;27.924;2023-08-17T12:17:14;100556.06;;;34.18;42.29
30875;BME280;17581;43.222;27.924;2023-08-17T12:19:40;100570.00;;;34.23;41.81
30875;BME280;17581;43.222;27.924;2023-08-17T12:22:06;100551.31;;;34.14;42.55
30875;BME280;17581;43.222;27.924;2023-08-17T12:24:31;100554.69;;;34.16;41.88
30875;BME280;17581;43.222;27.924;2023-08-17T12:26:57;100570.00;;;34.23;42.33
30875;BME280;17581;43.222;27.924;2023-08-17T12:29:24;100560.47;;;34.34;41.68
30875;BME280;17581;43.222;27.924;2023-08-17T12:31:51;100558.25;;;34.36;41.91
30875;BME280;17581;43.222;27.924;2023-08-17T12:34:17;100555.41;;;34.46;41.20
30875;BME280;17581;43.222;27.924;2023-08-17T12:36:43;100566.53;;;34.72;41.16
30875;BME280;17581;43.222;27.924;2023-08-17T12:39:09;100567.81;;;34.99;40.71
30875;BME280;17581;43.222;27.924;2023-08-17T12:41:35;100561.63;;;35.13;40.39
30875;BME280;17581;43.222;27.924;2023-08-17T12:44:00;100552.31;;;35.27;39.58